Stations météo

réclame
Mon MeteoGroup
Nimes/Courbessac, France (7645): Température de l'air & dewpoint: 17.08.2019 13:00:00 - 23.08.2019 13:00:00 (CEST)Nimes/Courbessac, France (7645): Température de l'air 5cm: 17.08.2019 13:00:00 - 23.08.2019 13:00:00 (CEST)Nimes/Courbessac, France (7645): Température de l'air -20cm: 17.08.2019 13:00:00 - 23.08.2019 13:00:00 (CEST)Nimes/Courbessac, France (7645): Vitesse du vent & gusts: 17.08.2019 13:00:00 - 23.08.2019 13:00:00 (CEST)Nimes/Courbessac, France (7645): Direction du vent: 17.08.2019 13:00:00 - 23.08.2019 13:00:00 (CEST)Nimes/Courbessac, France (7645): reduced air pressure: 17.08.2019 13:00:00 - 23.08.2019 13:00:00 (CEST)Nimes/Courbessac, France (7645): Ensoleillement: 17.08.2019 13:00:00 - 23.08.2019 13:00:00 (CEST)Nimes/Courbessac, France (7645): Quantités de précipitations: 17.08.2019 13:00:00 - 23.08.2019 13:00:00 (CEST)
Date & Time tt [°C] td [°C] tt 5cm [°C] tt -20cm [°C] ff [km/h] ff [knt] fx [km/h] fx [knt] dd ppp [hPa] sd [min] rr [mm]
23.08.2019 13:00:00 31,1 13,4 35,6 27,7 10 5 29 16 N 1019,0 60 0,0
23.08.2019 12:00:00 29,7 13,9 32,4 27,6 16 9 31 17 N 1019,4 60 0,0
23.08.2019 11:00:00 28,0 13,9 30,7 27,6 16 9 29 16 NNW 1019,4 60 0,0
23.08.2019 10:00:00 26,2 14,3 28,0 27,8 15 8 34 19 NNW 1019,6 60 0,0
23.08.2019 09:00:00 24,0 14,4 22,5 27,9 9 5 19 10 NNW 1019,9 60 0,0
23.08.2019 08:00:00 20,4 13,4 18,2 28,1 6 3 11 6 WNW 1020,0 43 0,0
23.08.2019 07:00:00 19,6 12,6 18,8 28,3 5 3 18 10 NW 1019,6 0 0,0
23.08.2019 06:00:00 20,6 13,1 19,7 28,5 10 6 19 10 WNW 1019,7 0 0,0
23.08.2019 05:00:00 20,8 13,5 19,2 28,7 9 5 16 9 WNW 1019,8 0 0,0
23.08.2019 04:00:00 20,8 13,5 18,6 28,9 9 5 15 8 NW 1020,1 0 0,0
23.08.2019 03:00:00 20,5 13,5 18,8 29,1 4 2 9 5 W 1020,2 0 0,0
23.08.2019 02:00:00 21,9 13,3 20,1 29,2 4 2 23 13 WNW 1020,1 0 0,0
23.08.2019 01:00:00 22,7 13,2 22,1 29,3 11 6 22 12 NW 1020,2 0 0,0
23.08.2019 00:00:00 23,7 13,0 23,0 29,5 11 6 25 14 NW 1020,4 0 0,0
22.08.2019 23:00:00 24,3 12,3 23,0 29,5 5 3 12 7 N 1020,7 0 0,0
22.08.2019 22:00:00 24,4 13,3 22,8 29,5 4 2 19 10 NNW 1020,7 0 0,0
22.08.2019 21:00:00 26,4 13,2 25,7 29,4 12 6 26 14 ENE 1020,2 12 0,0
22.08.2019 20:00:00 29,4 13,6 29,4 29,2 16 9 26 14 NNE 1019,4 48 0,0
22.08.2019 19:00:00 31,3 13,1 32,3 28,9 17 9 29 16 N 1018,6 42 0,0
22.08.2019 18:00:00 33,2 13,8 35,2 28,5 12 6 27 15 ENE 1017,9 52 0,0
22.08.2019 17:00:00 34,4 13,8 36,8 28,2 10 5 27 15 E 1018,1 41 0,0
22.08.2019 16:00:00 33,8 13,8 36,1 27,8 14 8 27 15 E 1018,2 45 0,0
22.08.2019 15:00:00 33,4 14,0 37,3 27,4 11 6 28 15 NE 1018,6 60 0,0
22.08.2019 14:00:00 31,8 13,5 37,2 27,1 15 8 29 16 NNW 1019,1 60 0,0
22.08.2019 13:00:00 30,0 13,3 34,0 26,9 16 9 31 17 NW 1019,3 56 0,0
22.08.2019 12:00:00 28,2 12,9 29,6 26,8 17 9 34 19 NNW 1019,7 60 0,0
22.08.2019 11:00:00 26,1 12,9 28,0 26,8 21 12 37 20 NNW 1019,9 60 0,0
22.08.2019 10:00:00 24,2 12,8 24,1 26,9 18 10 34 19 NNW 1019,9 60 0,0
22.08.2019 09:00:00 22,4 12,9 21,3 27,0 11 6 26 14 N 1019,6 8 0,0
22.08.2019 08:00:00 20,9 12,6 19,2 27,2 8 5 19 11 NNW 1019,6 2 0,0
22.08.2019 07:00:00 19,9 12,4 18,6 27,3 2 1 13 7 NNW 1019,2 0 0,0
22.08.2019 06:00:00 20,6 12,3 19,7 27,4 4 2 13 7 NNW 1018,7 0 0,0
22.08.2019 05:00:00 20,7 12,4 19,5 27,6 7 4 19 11 NNW 1018,6 0 0,0
22.08.2019 04:00:00 20,8 12,7 20,2 27,7 4 2 31 17 NNE 1018,6 0 0,0
22.08.2019 03:00:00 21,2 13,1 20,7 27,9 16 9 38 20 NW 1018,5 0 0,0
22.08.2019 02:00:00 21,3 13,5 20,7 28,0 15 8 35 19 NW 1019,1 0 0,0
22.08.2019 01:00:00 21,6 13,5 21,1 28,1 14 8 34 18 NW 1019,2 0 0,0
22.08.2019 00:00:00 21,9 13,0 21,4 28,2 14 7 36 19 NW 1019,4 0 0,0
21.08.2019 23:00:00 22,4 13,2 21,9 28,2 20 11 48 26 NW 1019,2 0 0,0
21.08.2019 22:00:00 22,7 12,6 22,3 28,2 18 10 44 24 NNW 1019,2 0 0,0
21.08.2019 21:00:00 23,3 11,7 22,7 28,2 15 8 32 17 NNW 1018,5 0 0,0
21.08.2019 20:00:00 24,8 11,0 24,7 28,1 14 8 36 19 N 1018,1 34 0,0
21.08.2019 19:00:00 27,1 10,3 29,2 27,8 16 8 42 23 NNW 1017,5 53 0,0
21.08.2019 18:00:00 27,5 9,8 29,9 27,5 18 10 40 22 N 1017,8 42 0,0
21.08.2019 17:00:00 28,6 9,8 31,8 27,2 25 13 44 24 N 1017,8 56 0,0
21.08.2019 16:00:00 28,3 10,0 30,2 26,9 16 9 42 23 N 1018,1 27 0,0
21.08.2019 15:00:00 29,3 9,4 32,9 26,6 18 10 41 22 N 1018,3 58 0,0
21.08.2019 14:00:00 28,0 9,3 29,2 26,4 17 9 55 30 NNW 1018,7 41 0,0
21.08.2019 13:00:00 26,2 9,5 28,8 26,2 24 13 55 30 NNW 1019,1 58 0,0
21.08.2019 12:00:00 24,5 9,2 26,5 26,2 26 14 56 31 NNW 1019,3 60 0,0
21.08.2019 11:00:00 22,9 9,3 24,7 26,2 23 13 52 28 NNW 1019,7 60 0,0
21.08.2019 10:00:00 21,6 8,8 22,5 26,3 31 17 63 34 NNW 1019,8 60 0,0
21.08.2019 09:00:00 20,2 9,1 20,0 26,5 27 14 64 35 NNW 1019,7 60 0,0
21.08.2019 08:00:00 18,9 8,5 17,9 26,6 23 12 53 28 NNW 1019,5 45 0,0
21.08.2019 07:00:00 18,3 8,5 17,6 26,8 19 10 50 27 NNW 1019,1 0 0,0
21.08.2019 06:00:00 18,2 9,0 17,6 26,9 20 11 49 26 NW 1018,9 0 0,0
21.08.2019 05:00:00 18,4 8,9 17,9 27,1 25 13 53 29 NW 1019,2 0 0,0
21.08.2019 04:00:00 18,5 9,0 17,8 27,3 23 12 46 25 NW 1019,5 0 0,0
21.08.2019 03:00:00 18,5 9,3 18,0 27,4 23 12 51 28 NW 1019,5 0 0,0
21.08.2019 02:00:00 18,8 9,0 18,3 27,6 22 12 44 24 NW 1019,6 0 0,0
21.08.2019 01:00:00 19,0 8,6 18,4 27,7 21 11 43 23 NW 1020,5 0 0,0
21.08.2019 00:00:00 19,4 9,3 18,9 27,9 23 13 59 32 NW 1020,6 0 0,0
20.08.2019 23:00:00 19,8 9,4 19,1 28,0 24 13 54 29 NW 1020,9 0 0,0
20.08.2019 22:00:00 20,1 9,6 19,6 28,1 22 12 59 32 NW 1021,2 0 0,0
20.08.2019 21:00:00 20,5 10,6 20,0 28,2 27 15 49 26 NW 1021,2 17 0,0
20.08.2019 20:00:00 21,4 10,8 21,4 28,2 21 11 48 26 NW 1020,6 60 0,0
20.08.2019 19:00:00 22,2 11,6 22,4 28,3 26 14 54 29 NNW 1020,3 35 0,0
20.08.2019 18:00:00 21,2 12,3 21,3 28,3 25 13 51 28 NW 1020,8 0 0,0
20.08.2019 17:00:00 20,9 13,8 21,7 28,3 16 9 32 17 NW 1020,7 0 0,0
20.08.2019 16:00:00 22,0 13,4 23,0 28,2 17 9 40 21 NNW 1020,7 0 0,0
20.08.2019 15:00:00 22,5 13,3 23,4 28,1 18 10 36 20 NW 1020,8 0 0,0
20.08.2019 14:00:00 22,6 13,1 23,9 28,1 15 8 37 20 NW 1020,3 0 0,0
20.08.2019 13:00:00 23,1 13,0 25,6 28,1 15 8 36 20 NW 1020,1 0 0,0
20.08.2019 12:00:00 23,5 13,1 24,8 28,1 17 9 34 19 NNW 1019,8 23 0,0
20.08.2019 11:00:00 22,6 13,1 23,2 28,2 12 7 32 17 N 1019,7 5 0,0
20.08.2019 10:00:00 21,2 12,3 21,1 28,3 13 7 26 14 NNW 1019,4 3 0,0
20.08.2019 09:00:00 20,0 12,0 19,7 28,5 9 5 25 13 NNW 1018,8 0 0,0
20.08.2019 08:00:00 19,2 12,7 18,9 28,7 6 4 22 12 N 1018,3 0 0,0
20.08.2019 07:00:00 19,2 12,9 18,9 28,9 11 6 21 11 NNW 1017,7 0 0,0
20.08.2019 06:00:00 19,5 13,0 18,3 29,0 10 6 41 22 NNW 1017,2 0 0,0
20.08.2019 05:00:00 21,0 12,2 21,0 29,2 19 10 36 19 NW 1017,6 0 0,0
20.08.2019 04:00:00 21,6 11,6 21,5 29,3 13 7 29 16 NW 1017,4 0 0,0
20.08.2019 03:00:00 21,7 12,0 21,5 29,5 14 7 34 19 NW 1017,9 0 0,0
20.08.2019 02:00:00 21,7 12,8 21,5 29,7 13 7 34 19 NW 1017,8 0 0,0
20.08.2019 01:00:00 21,6 13,8 21,2 29,8 11 6 22 12 NNW 1017,9 0 0,0
20.08.2019 00:00:00 21,5 14,2 21,3 29,9 7 4 31 17 N 1018,4 0 0,0
19.08.2019 23:00:00 22,0 15,1 21,8 30,0 4 2 23 12 NNE 1018,6 0 0,0
19.08.2019 22:00:00 22,5 16,1 20,7 30,0 12 6 23 13 N 1017,4 0 0,0
19.08.2019 21:00:00 24,6 17,3 23,1 29,9 13 7 21 11 N 1016,9 0 0,0
19.08.2019 20:00:00 26,8 19,7 26,9 29,9 10 6 18 10 S 1016,6 0 0,0
19.08.2019 19:00:00 27,6 19,7 28,2 29,8 9 5 16 9 S 1016,0 0 0,0
19.08.2019 18:00:00 28,3 19,5 30,1 29,6 7 4 14 8 SSE 1016,0 11 0,0
19.08.2019 17:00:00 28,3 19,2 29,6 29,5 6 3 14 7 S 1016,0 0 0,0
19.08.2019 16:00:00 27,8 19,3 29,4 29,3 8 4 14 8 WSW 1016,3 0 0,0
19.08.2019 15:00:00 28,1 19,1 30,5 29,1 4 2 20 11 WNW 1016,5 0 0,0
19.08.2019 14:00:00 27,7 18,7 31,2 29,0 8 4 15 8 W 1016,4 4 0,0
19.08.2019 13:00:00 28,2 18,3 32,4 29,0 4 2 14 8 SW 1016,4 28 0,0
19.08.2019 12:00:00 26,5 18,9 28,5 29,0 4 2 14 8 SW 1016,5 7 0,0
19.08.2019 11:00:00 24,8 19,6 22,4 29,1 5 3 11 6 NNE 1016,7 2 0,0
19.08.2019 10:00:00 22,9 20,1 21,7 29,2 5 3 15 8 NNE 1016,7 0 0,0
19.08.2019 09:00:00 22,4 19,2 22,5 29,4 8 4 15 8 NNE 1016,5 0 0,0
19.08.2019 08:00:00 21,7 19,3 21,4 29,6 9 5 13 7 NE 1016,1 0 0,0
19.08.2019 07:00:00 21,3 19,6 21,1 29,7 7 4 13 7 ENE 1015,7 0 0,0
19.08.2019 06:00:00 21,1 19,6 20,4 29,9 2 1 8 4 NNW 1015,4 0 0,0
19.08.2019 05:00:00 21,0 19,6 20,0 30,1 2 1 10 5 NNW 1015,5 0 0,0
19.08.2019 04:00:00 20,9 18,5 20,2 30,3 0 0 6 4 N 1015,9 0 0,0
19.08.2019 03:00:00 21,2 19,3 20,0 30,4 0 0 8 4 N 1015,7 0 0,0
19.08.2019 02:00:00 21,1 19,2 20,1 30,6 0 0 4 2 N 1015,8 0 0,0
19.08.2019 01:00:00 22,0 19,5 21,4 30,7 4 2 6 4 ENE 1016,0 0 0,0
19.08.2019 00:00:00 22,3 20,0 21,8 30,8 4 2 10 5 E 1015,9 0 0,0
18.08.2019 23:00:00 22,5 19,9 21,9 30,9 5 3 16 8 SSE 1015,3 0 0,0
18.08.2019 22:00:00 23,1 19,3 22,8 31,0 10 5 21 12 S 1015,2 0 0,0
18.08.2019 21:00:00 23,8 18,7 23,5 31,0 12 7 22 12 S 1013,9 7 0,0
18.08.2019 20:00:00 25,2 16,3 25,6 30,9 16 8 32 17 SSE 1013,8 34 0,0
18.08.2019 19:00:00 27,3 16,3 31,3 30,7 17 9 29 16 SE 1013,9 60 0,0
18.08.2019 18:00:00 28,6 16,2 33,4 30,4 18 10 35 19 S 1013,9 60 0,0
18.08.2019 17:00:00 29,5 17,3 34,9 30,1 19 10 40 22 SSE 1013,9 60 0,0
18.08.2019 16:00:00 29,2 18,6 32,4 29,8 21 11 35 19 SE 1014,2 50 0,0
18.08.2019 15:00:00 30,1 18,2 33,3 29,5 16 8 32 17 SE 1014,4 47 0,0
18.08.2019 14:00:00 29,8 18,9 32,7 29,3 19 11 35 19 SSE 1014,5 43 0,0
18.08.2019 13:00:00 29,3 18,4 30,6 29,2 23 13 38 21 SE 1014,7 47 0,0
18.08.2019 12:00:00 28,0 19,2 27,3 29,2 24 13 41 22 SE 1014,8 30 0,0
18.08.2019 11:00:00 26,4 19,8 27,2 29,2 21 11 35 19 ESE 1014,7 23 0,0
18.08.2019 10:00:00 25,3 20,1 24,4 29,3 21 11 35 19 ESE 1014,6 23 0,0
18.08.2019 09:00:00 23,1 20,1 22,5 29,5 9 5 15 8 E 1014,7 1 0,0
18.08.2019 08:00:00 22,0 20,1 21,9 29,6 8 4 11 6 E 1014,4 0 0,0
18.08.2019 07:00:00 21,9 20,4 21,9 29,7 8 4 14 8 E 1014,1 0 0,0
18.08.2019 06:00:00 22,0 20,6 21,9 29,9 11 6 16 9 ESE 1014,1 0 0,0
18.08.2019 05:00:00 21,8 20,8 21,1 30,1 5 3 13 7 E 1014,4 0 0,0
18.08.2019 04:00:00 21,4 20,6 20,5 30,2 5 3 9 5 ENE 1014,8 0 0,0
18.08.2019 03:00:00 21,9 20,5 21,3 30,4 5 3 8 4 E 1015,2 0 0,0
18.08.2019 02:00:00 21,9 20,9 21,0 30,5 2 1 9 5 NNE 1015,5 0 0,0
18.08.2019 01:00:00 22,4 21,0 21,7 30,7 6 4 13 7 ENE 1015,8 0 0,0
18.08.2019 00:00:00 22,8 21,1 22,3 30,7 3 1 9 5 ESE 1015,6 0 0,0
17.08.2019 23:00:00 23,2 21,1 22,6 30,8 6 3 16 9 SE 1015,4 0 0,0
17.08.2019 22:00:00 24,3 21,0 24,4 30,8 11 6 22 12 SSE 1015,3 0 0,0
17.08.2019 21:00:00 24,4 20,7 24,4 30,8 11 6 22 12 SSE 1014,7 21 0,0
17.08.2019 20:00:00 26,2 18,8 27,3 30,6 13 7 25 14 SE 1014,5 60 0,0
17.08.2019 19:00:00 29,1 15,6 32,8 30,4 18 10 28 15 SE 1014,2 60 0,0
17.08.2019 18:00:00 30,4 14,5 35,5 30,0 17 9 29 16 SE 1014,3 60 0,0
17.08.2019 17:00:00 30,3 16,7 35,7 29,7 14 8 32 17 SE 1014,5 60 0,0
17.08.2019 16:00:00 29,8 17,9 36,1 29,3 18 10 30 16 SSE 1014,9 60 0,0
17.08.2019 15:00:00 29,7 17,2 34,5 29,0 18 10 30 16 SSE 1015,4 60 0,0
17.08.2019 14:00:00 28,2 16,8 31,4 28,7 14 8 26 14 SE 1015,8 47 0,0
17.08.2019 13:00:00 28,9 16,8 32,2 28,5 13 7 24 13 SE 1016,1 54 0,0

tt = Température de l'air
td = dewpoint
tt 5cm = Température de l'air 5cm
tt -20cm = Température de l'air -20cm
ff = Vitesse du vent
fx = gusts
dd = Direction du vent
ppp = reduced air pressure
sd = Ensoleillement
rr = Quantités de précipitations

stations d'obs. à proximité